sensor_id;sensor_type;location;lat;lon;timestamp;P1;durP1;ratioP1;P2;durP2;ratioP2
58581;SDS011;44361;51.476;5.700;2022-12-29T00:01:17;2.67;;;1.88;;
58581;SDS011;44361;51.476;5.700;2022-12-29T00:03:45;2.55;;;1.88;;
58581;SDS011;44361;51.476;5.700;2022-12-29T00:06:11;4.78;;;1.98;;
58581;SDS011;44361;51.476;5.700;2022-12-29T00:08:36;4.72;;;2.10;;
58581;SDS011;44361;51.476;5.700;2022-12-29T00:11:06;2.90;;;2.10;;
58581;SDS011;44361;51.476;5.700;2022-12-29T00:13:42;5.10;;;2.30;;
58581;SDS011;44361;51.476;5.700;2022-12-29T00:16:27;2.85;;;2.15;;
58581;SDS011;44361;51.476;5.700;2022-12-29T00:18:53;4.72;;;2.40;;
58581;SDS011;44361;51.476;5.700;2022-12-29T00:21:20;4.40;;;2.63;;
58581;SDS011;44361;51.476;5.700;2022-12-29T00:24:08;4.53;;;2.38;;
58581;SDS011;44361;51.476;5.700;2022-12-29T00:27:07;5.57;;;3.22;;
58581;SDS011;44361;51.476;5.700;2022-12-29T00:29:54;3.95;;;2.78;;
58581;SDS011;44361;51.476;5.700;2022-12-29T00:32:39;5.25;;;3.08;;
58581;SDS011;44361;51.476;5.700;2022-12-29T00:35:25;4.03;;;2.60;;
58581;SDS011;44361;51.476;5.700;2022-12-29T00:37:53;5.25;;;2.92;;
58581;SDS011;44361;51.476;5.700;2022-12-29T00:40:40;3.80;;;2.75;;
58581;SDS011;44361;51.476;5.700;2022-12-29T00:43:24;6.43;;;2.60;;
58581;SDS011;44361;51.476;5.700;2022-12-29T00:46:22;3.20;;;2.30;;
58581;SDS011;44361;51.476;5.700;2022-12-29T00:48:47;4.07;;;2.70;;
58581;SDS011;44361;51.476;5.700;2022-12-29T00:51:32;3.08;;;2.00;;
58581;SDS011;44361;51.476;5.700;2022-12-29T00:53:57;3.25;;;2.00;;
58581;SDS011;44361;51.476;5.700;2022-12-29T00:56:23;4.65;;;2.20;;
58581;SDS011;44361;51.476;5.700;2022-12-29T00:58:48;2.55;;;2.00;;
58581;SDS011;44361;51.476;5.700;2022-12-29T01:01:14;2.20;;;1.80;;
58581;SDS011;44361;51.476;5.700;2022-12-29T01:03:40;1.75;;;1.50;;
58581;SDS011;44361;51.476;5.700;2022-12-29T01:06:06;4.40;;;1.90;;
58581;SDS011;44361;51.476;5.700;2022-12-29T01:08:34;2.17;;;1.98;;
58581;SDS011;44361;51.476;5.700;2022-12-29T01:11:00;3.55;;;1.73;;
58581;SDS011;44361;51.476;5.700;2022-12-29T01:13:27;3.25;;;1.58;;
58581;SDS011;44361;51.476;5.700;2022-12-29T01:15:53;3.05;;;1.10;;
58581;SDS011;44361;51.476;5.700;2022-12-29T01:18:20;5.53;;;1.52;;
58581;SDS011;44361;51.476;5.700;2022-12-29T01:20:46;3.40;;;1.13;;
58581;SDS011;44361;51.476;5.700;2022-12-29T01:23:12;3.72;;;1.35;;
58581;SDS011;44361;51.476;5.700;2022-12-29T01:25:38;2.75;;;1.13;;
58581;SDS011;44361;51.476;5.700;2022-12-29T01:28:03;3.35;;;1.10;;
58581;SDS011;44361;51.476;5.700;2022-12-29T01:30:29;1.38;;;1.00;;
58581;SDS011;44361;51.476;5.700;2022-12-29T01:32:55;1.88;;;1.10;;
58581;SDS011;44361;51.476;5.700;2022-12-29T01:35:20;1.58;;;1.00;;
58581;SDS011;44361;51.476;5.700;2022-12-29T01:37:46;2.13;;;0.65;;
58581;SDS011;44361;51.476;5.700;2022-12-29T01:40:11;3.60;;;0.95;;
58581;SDS011;44361;51.476;5.700;2022-12-29T01:42:37;3.42;;;0.80;;
58581;SDS011;44361;51.476;5.700;2022-12-29T01:45:12;2.03;;;0.80;;
58581;SDS011;44361;51.476;5.700;2022-12-29T01:47:41;2.15;;;0.80;;
58581;SDS011;44361;51.476;5.700;2022-12-29T01:50:32;1.38;;;0.70;;
58581;SDS011;44361;51.476;5.700;2022-12-29T01:53:06;1.67;;;0.70;;
58581;SDS011;44361;51.476;5.700;2022-12-29T01:55:35;2.55;;;0.68;;
58581;SDS011;44361;51.476;5.700;2022-12-29T01:58:12;4.05;;;0.80;;
58581;SDS011;44361;51.476;5.700;2022-12-29T02:00:40;4.35;;;0.70;;
58581;SDS011;44361;51.476;5.700;2022-12-29T02:03:06;1.10;;;0.52;;
58581;SDS011;44361;51.476;5.700;2022-12-29T02:05:54;2.13;;;0.60;;
58581;SDS011;44361;51.476;5.700;2022-12-29T02:08:28;2.38;;;0.70;;
58581;SDS011;44361;51.476;5.700;2022-12-29T02:10:55;1.23;;;0.50;;
58581;SDS011;44361;51.476;5.700;2022-12-29T02:13:23;1.48;;;0.43;;
58581;SDS011;44361;51.476;5.700;2022-12-29T02:18:51;4.13;;;0.65;;
58581;SDS011;44361;51.476;5.700;2022-12-29T02:30:15;1.37;;;0.57;;
58581;SDS011;44361;51.476;5.700;2022-12-29T02:33:06;2.13;;;0.70;;
58581;SDS011;44361;51.476;5.700;2022-12-29T02:36:14;3.42;;;0.60;;
58581;SDS011;44361;51.476;5.700;2022-12-29T02:39:05;4.22;;;0.80;;
58581;SDS011;44361;51.476;5.700;2022-12-29T02:47:29;3.20;;;0.98;;
58581;SDS011;44361;51.476;5.700;2022-12-29T02:50:27;1.25;;;0.50;;
58581;SDS011;44361;51.476;5.700;2022-12-29T02:55:29;3.58;;;0.82;;
58581;SDS011;44361;51.476;5.700;2022-12-29T02:58:18;1.75;;;0.60;;
58581;SDS011;44361;51.476;5.700;2022-12-29T03:03:45;2.28;;;0.63;;
58581;SDS011;44361;51.476;5.700;2022-12-29T03:06:33;3.08;;;0.63;;
58581;SDS011;44361;51.476;5.700;2022-12-29T03:09:36;3.05;;;0.88;;
58581;SDS011;44361;51.476;5.700;2022-12-29T03:15:24;2.78;;;0.75;;
58581;SDS011;44361;51.476;5.700;2022-12-29T03:18:21;2.40;;;1.00;;
58581;SDS011;44361;51.476;5.700;2022-12-29T03:20:55;3.35;;;0.45;;
58581;SDS011;44361;51.476;5.700;2022-12-29T03:23:26;3.85;;;0.60;;
58581;SDS011;44361;51.476;5.700;2022-12-29T03:25:53;3.78;;;0.50;;
58581;SDS011;44361;51.476;5.700;2022-12-29T03:28:24;3.05;;;0.70;;
58581;SDS011;44361;51.476;5.700;2022-12-29T03:31:00;1.02;;;0.40;;
58581;SDS011;44361;51.476;5.700;2022-12-29T03:33:28;3.28;;;0.52;;
58581;SDS011;44361;51.476;5.700;2022-12-29T03:35:57;5.70;;;0.50;;
58581;SDS011;44361;51.476;5.700;2022-12-29T03:38:40;4.10;;;0.60;;
58581;SDS011;44361;51.476;5.700;2022-12-29T03:41:20;2.38;;;0.32;;
58581;SDS011;44361;51.476;5.700;2022-12-29T03:43:50;1.33;;;0.40;;
58581;SDS011;44361;51.476;5.700;2022-12-29T03:46:15;4.10;;;0.70;;
58581;SDS011;44361;51.476;5.700;2022-12-29T03:48:41;2.83;;;0.75;;
58581;SDS011;44361;51.476;5.700;2022-12-29T03:51:06;2.65;;;0.57;;
58581;SDS011;44361;51.476;5.700;2022-12-29T03:53:32;2.20;;;0.47;;
58581;SDS011;44361;51.476;5.700;2022-12-29T03:55:57;5.38;;;0.40;;
58581;SDS011;44361;51.476;5.700;2022-12-29T03:58:23;0.90;;;0.32;;
58581;SDS011;44361;51.476;5.700;2022-12-29T04:00:48;3.28;;;0.52;;
58581;SDS011;44361;51.476;5.700;2022-12-29T04:03:14;4.05;;;0.50;;
58581;SDS011;44361;51.476;5.700;2022-12-29T04:05:39;4.30;;;0.80;;
58581;SDS011;44361;51.476;5.700;2022-12-29T04:08:05;0.98;;;0.30;;
58581;SDS011;44361;51.476;5.700;2022-12-29T04:10:30;5.97;;;0.60;;
58581;SDS011;44361;51.476;5.700;2022-12-29T04:12:56;4.60;;;0.45;;
58581;SDS011;44361;51.476;5.700;2022-12-29T04:15:21;2.20;;;0.40;;
58581;SDS011;44361;51.476;5.700;2022-12-29T04:17:49;3.72;;;0.55;;
58581;SDS011;44361;51.476;5.700;2022-12-29T04:20:14;2.90;;;0.38;;
58581;SDS011;44361;51.476;5.700;2022-12-29T04:22:59;4.47;;;0.25;;
58581;SDS011;44361;51.476;5.700;2022-12-29T04:25:25;5.00;;;0.43;;
58581;SDS011;44361;51.476;5.700;2022-12-29T04:27:51;2.20;;;0.50;;
58581;SDS011;44361;51.476;5.700;2022-12-29T04:30:16;2.33;;;0.40;;
58581;SDS011;44361;51.476;5.700;2022-12-29T04:32:42;4.43;;;0.70;;
58581;SDS011;44361;51.476;5.700;2022-12-29T04:35:07;5.03;;;0.50;;
58581;SDS011;44361;51.476;5.700;2022-12-29T04:37:33;2.40;;;1.08;;
58581;SDS011;44361;51.476;5.700;2022-12-29T04:39:58;3.17;;;0.22;;
58581;SDS011;44361;51.476;5.700;2022-12-29T04:42:24;3.85;;;0.70;;
58581;SDS011;44361;51.476;5.700;2022-12-29T04:44:49;4.65;;;0.80;;
58581;SDS011;44361;51.476;5.700;2022-12-29T04:47:15;5.85;;;1.00;;
58581;SDS011;44361;51.476;5.700;2022-12-29T04:49:40;4.95;;;0.77;;
58581;SDS011;44361;51.476;5.700;2022-12-29T04:52:06;4.32;;;0.82;;
58581;SDS011;44361;51.476;5.700;2022-12-29T04:54:33;5.05;;;1.20;;
58581;SDS011;44361;51.476;5.700;2022-12-29T04:56:59;3.90;;;0.63;;
58581;SDS011;44361;51.476;5.700;2022-12-29T04:59:24;9.82;;;0.68;;
58581;SDS011;44361;51.476;5.700;2022-12-29T05:01:50;8.02;;;0.85;;
58581;SDS011;44361;51.476;5.700;2022-12-29T05:04:15;3.58;;;0.50;;
58581;SDS011;44361;51.476;5.700;2022-12-29T05:06:41;11.32;;;1.50;;
58581;SDS011;44361;51.476;5.700;2022-12-29T05:09:06;3.67;;;0.38;;
58581;SDS011;44361;51.476;5.700;2022-12-29T05:11:31;6.22;;;1.17;;
58581;SDS011;44361;51.476;5.700;2022-12-29T05:13:57;3.80;;;0.65;;
58581;SDS011;44361;51.476;5.700;2022-12-29T05:16:22;3.78;;;0.60;;
58581;SDS011;44361;51.476;5.700;2022-12-29T05:18:48;5.03;;;0.73;;
58581;SDS011;44361;51.476;5.700;2022-12-29T05:21:13;4.00;;;0.75;;
58581;SDS011;44361;51.476;5.700;2022-12-29T05:23:39;1.58;;;0.35;;
58581;SDS011;44361;51.476;5.700;2022-12-29T05:26:04;4.20;;;0.50;;
58581;SDS011;44361;51.476;5.700;2022-12-29T05:28:30;3.15;;;0.35;;
58581;SDS011;44361;51.476;5.700;2022-12-29T05:30:56;1.80;;;0.63;;
58581;SDS011;44361;51.476;5.700;2022-12-29T05:33:21;3.58;;;0.60;;
58581;SDS011;44361;51.476;5.700;2022-12-29T05:35:47;3.70;;;0.52;;
58581;SDS011;44361;51.476;5.700;2022-12-29T05:38:12;1.80;;;0.30;;
58581;SDS011;44361;51.476;5.700;2022-12-29T05:40:38;2.65;;;0.70;;
58581;SDS011;44361;51.476;5.700;2022-12-29T05:43:03;2.42;;;0.50;;
58581;SDS011;44361;51.476;5.700;2022-12-29T05:45:29;4.45;;;0.88;;
58581;SDS011;44361;51.476;5.700;2022-12-29T05:47:54;4.88;;;0.52;;
58581;SDS011;44361;51.476;5.700;2022-12-29T05:50:20;5.40;;;1.08;;
58581;SDS011;44361;51.476;5.700;2022-12-29T05:52:46;5.55;;;0.70;;
58581;SDS011;44361;51.476;5.700;2022-12-29T05:55:11;5.68;;;0.80;;
58581;SDS011;44361;51.476;5.700;2022-12-29T05:57:37;4.43;;;0.40;;
58581;SDS011;44361;51.476;5.700;2022-12-29T06:00:03;2.72;;;0.80;;
58581;SDS011;44361;51.476;5.700;2022-12-29T06:02:30;1.33;;;0.40;;
58581;SDS011;44361;51.476;5.700;2022-12-29T06:04:55;3.55;;;0.65;;
58581;SDS011;44361;51.476;5.700;2022-12-29T06:07:21;5.72;;;0.80;;
58581;SDS011;44361;51.476;5.700;2022-12-29T06:09:46;4.07;;;0.60;;
58581;SDS011;44361;51.476;5.700;2022-12-29T06:12:12;4.47;;;0.68;;
58581;SDS011;44361;51.476;5.700;2022-12-29T06:14:37;5.53;;;0.43;;
58581;SDS011;44361;51.476;5.700;2022-12-29T06:17:03;3.47;;;0.68;;
58581;SDS011;44361;51.476;5.700;2022-12-29T06:19:29;5.80;;;0.70;;
58581;SDS011;44361;51.476;5.700;2022-12-29T06:21:54;3.95;;;0.57;;
58581;SDS011;44361;51.476;5.700;2022-12-29T06:24:20;5.47;;;0.60;;
58581;SDS011;44361;51.476;5.700;2022-12-29T06:26:46;9.27;;;0.80;;
58581;SDS011;44361;51.476;5.700;2022-12-29T06:29:11;5.65;;;0.60;;
58581;SDS011;44361;51.476;5.700;2022-12-29T06:31:41;4.95;;;0.70;;
58581;SDS011;44361;51.476;5.700;2022-12-29T06:34:08;4.90;;;0.73;;
58581;SDS011;44361;51.476;5.700;2022-12-29T06:36:33;5.60;;;0.47;;
58581;SDS011;44361;51.476;5.700;2022-12-29T06:38:59;7.50;;;0.80;;
58581;SDS011;44361;51.476;5.700;2022-12-29T06:41:25;6.55;;;0.82;;
58581;SDS011;44361;51.476;5.700;2022-12-29T06:43:50;1.92;;;0.73;;
58581;SDS011;44361;51.476;5.700;2022-12-29T06:46:16;4.47;;;0.80;;
58581;SDS011;44361;51.476;5.700;2022-12-29T06:48:41;4.10;;;0.50;;
58581;SDS011;44361;51.476;5.700;2022-12-29T06:51:07;6.57;;;0.70;;
58581;SDS011;44361;51.476;5.700;2022-12-29T06:53:33;6.63;;;0.80;;
58581;SDS011;44361;51.476;5.700;2022-12-29T06:55:58;4.13;;;0.70;;
58581;SDS011;44361;51.476;5.700;2022-12-29T06:58:24;6.05;;;0.90;;
58581;SDS011;44361;51.476;5.700;2022-12-29T07:00:49;6.30;;;0.90;;
58581;SDS011;44361;51.476;5.700;2022-12-29T07:03:15;5.93;;;1.00;;
58581;SDS011;44361;51.476;5.700;2022-12-29T07:05:40;5.45;;;0.88;;
58581;SDS011;44361;51.476;5.700;2022-12-29T07:08:06;5.57;;;0.82;;
58581;SDS011;44361;51.476;5.700;2022-12-29T07:10:31;8.02;;;1.23;;
58581;SDS011;44361;51.476;5.700;2022-12-29T07:12:57;6.22;;;0.80;;
58581;SDS011;44361;51.476;5.700;2022-12-29T07:15:23;3.90;;;0.80;;
58581;SDS011;44361;51.476;5.700;2022-12-29T07:17:48;4.88;;;0.57;;
58581;SDS011;44361;51.476;5.700;2022-12-29T07:20:17;10.10;;;1.83;;
58581;SDS011;44361;51.476;5.700;2022-12-29T07:22:43;5.20;;;0.77;;
58581;SDS011;44361;51.476;5.700;2022-12-29T07:25:08;6.55;;;0.93;;
58581;SDS011;44361;51.476;5.700;2022-12-29T07:27:34;8.90;;;1.23;;
58581;SDS011;44361;51.476;5.700;2022-12-29T07:29:59;8.60;;;1.05;;
58581;SDS011;44361;51.476;5.700;2022-12-29T07:32:25;4.68;;;0.75;;
58581;SDS011;44361;51.476;5.700;2022-12-29T07:34:50;13.48;;;0.90;;
58581;SDS011;44361;51.476;5.700;2022-12-29T07:37:16;6.78;;;0.95;;
58581;SDS011;44361;51.476;5.700;2022-12-29T07:39:42;5.07;;;0.70;;
58581;SDS011;44361;51.476;5.700;2022-12-29T07:42:07;9.98;;;1.42;;
58581;SDS011;44361;51.476;5.700;2022-12-29T07:44:33;9.85;;;1.52;;
58581;SDS011;44361;51.476;5.700;2022-12-29T07:46:59;8.32;;;1.20;;
58581;SDS011;44361;51.476;5.700;2022-12-29T07:49:24;10.10;;;1.15;;
58581;SDS011;44361;51.476;5.700;2022-12-29T07:51:50;6.45;;;1.00;;
58581;SDS011;44361;51.476;5.700;2022-12-29T07:54:15;8.18;;;1.17;;
58581;SDS011;44361;51.476;5.700;2022-12-29T07:56:43;6.35;;;0.93;;
58581;SDS011;44361;51.476;5.700;2022-12-29T07:59:09;9.93;;;1.27;;
58581;SDS011;44361;51.476;5.700;2022-12-29T08:01:36;6.65;;;1.65;;
58581;SDS011;44361;51.476;5.700;2022-12-29T08:04:02;10.13;;;0.95;;
58581;SDS011;44361;51.476;5.700;2022-12-29T08:06:28;9.32;;;1.98;;
58581;SDS011;44361;51.476;5.700;2022-12-29T08:08:55;9.85;;;1.25;;
58581;SDS011;44361;51.476;5.700;2022-12-29T08:11:21;12.75;;;1.27;;
58581;SDS011;44361;51.476;5.700;2022-12-29T08:13:47;13.18;;;2.13;;
58581;SDS011;44361;51.476;5.700;2022-12-29T08:16:12;7.90;;;1.20;;
58581;SDS011;44361;51.476;5.700;2022-12-29T08:18:38;7.60;;;1.23;;
58581;SDS011;44361;51.476;5.700;2022-12-29T08:21:03;12.20;;;1.10;;
58581;SDS011;44361;51.476;5.700;2022-12-29T08:23:29;10.98;;;1.50;;
58581;SDS011;44361;51.476;5.700;2022-12-29T08:25:58;10.30;;;1.17;;
58581;SDS011;44361;51.476;5.700;2022-12-29T08:28:25;6.70;;;1.20;;
58581;SDS011;44361;51.476;5.700;2022-12-29T08:30:51;8.93;;;1.13;;
58581;SDS011;44361;51.476;5.700;2022-12-29T08:33:17;9.60;;;1.13;;
58581;SDS011;44361;51.476;5.700;2022-12-29T08:35:43;6.72;;;1.20;;
58581;SDS011;44361;51.476;5.700;2022-12-29T08:38:09;11.10;;;1.40;;
58581;SDS011;44361;51.476;5.700;2022-12-29T08:40:36;7.57;;;0.93;;
58581;SDS011;44361;51.476;5.700;2022-12-29T08:43:02;7.28;;;1.05;;
58581;SDS011;44361;51.476;5.700;2022-12-29T08:45:27;5.93;;;1.00;;
58581;SDS011;44361;51.476;5.700;2022-12-29T08:47:53;6.50;;;1.17;;
58581;SDS011;44361;51.476;5.700;2022-12-29T08:50:18;6.10;;;1.00;;
58581;SDS011;44361;51.476;5.700;2022-12-29T08:52:44;9.85;;;1.23;;
58581;SDS011;44361;51.476;5.700;2022-12-29T08:55:09;10.07;;;1.15;;
58581;SDS011;44361;51.476;5.700;2022-12-29T08:57:35;7.57;;;1.10;;
58581;SDS011;44361;51.476;5.700;2022-12-29T09:00:01;7.65;;;1.10;;
58581;SDS011;44361;51.476;5.700;2022-12-29T09:02:27;5.90;;;0.90;;
58581;SDS011;44361;51.476;5.700;2022-12-29T09:04:52;11.98;;;1.48;;
58581;SDS011;44361;51.476;5.700;2022-12-29T09:07:18;4.88;;;0.90;;
58581;SDS011;44361;51.476;5.700;2022-12-29T09:09:43;7.20;;;1.05;;
58581;SDS011;44361;51.476;5.700;2022-12-29T09:12:09;8.73;;;1.10;;
58581;SDS011;44361;51.476;5.700;2022-12-29T09:14:34;5.10;;;1.05;;
58581;SDS011;44361;51.476;5.700;2022-12-29T09:17:00;9.60;;;1.60;;
58581;SDS011;44361;51.476;5.700;2022-12-29T09:19:44;9.30;;;1.27;;
58581;SDS011;44361;51.476;5.700;2022-12-29T09:22:09;11.73;;;1.70;;
58581;SDS011;44361;51.476;5.700;2022-12-29T09:24:35;7.88;;;1.00;;
58581;SDS011;44361;51.476;5.700;2022-12-29T09:27:00;7.13;;;1.10;;
58581;SDS011;44361;51.476;5.700;2022-12-29T09:29:26;10.63;;;1.30;;
58581;SDS011;44361;51.476;5.700;2022-12-29T09:31:51;11.88;;;1.40;;
58581;SDS011;44361;51.476;5.700;2022-12-29T09:34:17;7.05;;;1.27;;
58581;SDS011;44361;51.476;5.700;2022-12-29T09:36:43;13.73;;;1.30;;
58581;SDS011;44361;51.476;5.700;2022-12-29T09:39:08;9.15;;;1.20;;
58581;SDS011;44361;51.476;5.700;2022-12-29T09:41:38;9.50;;;1.20;;
58581;SDS011;44361;51.476;5.700;2022-12-29T09:46:47;7.15;;;0.90;;
58581;SDS011;44361;51.476;5.700;2022-12-29T09:52:13;5.78;;;1.10;;
58581;SDS011;44361;51.476;5.700;2022-12-29T09:57:29;5.45;;;0.80;;
58581;SDS011;44361;51.476;5.700;2022-12-29T10:00:05;10.60;;;1.38;;
58581;SDS011;44361;51.476;5.700;2022-12-29T10:02:40;10.18;;;2.05;;
58581;SDS011;44361;51.476;5.700;2022-12-29T10:05:17;10.05;;;1.60;;
58581;SDS011;44361;51.476;5.700;2022-12-29T10:08:08;6.22;;;1.35;;
58581;SDS011;44361;51.476;5.700;2022-12-29T10:10:53;4.30;;;0.93;;
58581;SDS011;44361;51.476;5.700;2022-12-29T10:13:46;11.50;;;1.20;;
58581;SDS011;44361;51.476;5.700;2022-12-29T10:16:37;8.65;;;1.20;;
58581;SDS011;44361;51.476;5.700;2022-12-29T10:22:40;8.55;;;1.00;;
58581;SDS011;44361;51.476;5.700;2022-12-29T10:25:26;13.10;;;1.20;;
58581;SDS011;44361;51.476;5.700;2022-12-29T10:27:57;7.70;;;1.23;;
58581;SDS011;44361;51.476;5.700;2022-12-29T10:30:26;9.30;;;1.98;;
58581;SDS011;44361;51.476;5.700;2022-12-29T10:32:52;8.57;;;1.30;;
58581;SDS011;44361;51.476;5.700;2022-12-29T10:35:31;6.15;;;1.20;;
58581;SDS011;44361;51.476;5.700;2022-12-29T10:38:12;7.35;;;1.00;;
58581;SDS011;44361;51.476;5.700;2022-12-29T10:45:54;11.32;;;2.10;;
58581;SDS011;44361;51.476;5.700;2022-12-29T10:48:33;9.20;;;1.55;;
58581;SDS011;44361;51.476;5.700;2022-12-29T10:51:01;6.75;;;1.17;;
58581;SDS011;44361;51.476;5.700;2022-12-29T10:53:43;7.53;;;1.00;;
58581;SDS011;44361;51.476;5.700;2022-12-29T10:56:21;13.00;;;1.55;;
58581;SDS011;44361;51.476;5.700;2022-12-29T10:58:59;8.25;;;1.35;;
58581;SDS011;44361;51.476;5.700;2022-12-29T11:01:50;7.30;;;1.20;;
58581;SDS011;44361;51.476;5.700;2022-12-29T11:04:22;4.38;;;1.13;;
58581;SDS011;44361;51.476;5.700;2022-12-29T11:07:00;6.90;;;1.05;;
58581;SDS011;44361;51.476;5.700;2022-12-29T11:09:30;8.25;;;1.85;;
58581;SDS011;44361;51.476;5.700;2022-12-29T11:11:59;10.13;;;1.55;;
58581;SDS011;44361;51.476;5.700;2022-12-29T11:14:29;5.97;;;1.00;;
58581;SDS011;44361;51.476;5.700;2022-12-29T11:17:00;6.68;;;1.10;;
58581;SDS011;44361;51.476;5.700;2022-12-29T11:19:32;6.97;;;1.13;;
58581;SDS011;44361;51.476;5.700;2022-12-29T11:24:47;12.13;;;1.90;;
58581;SDS011;44361;51.476;5.700;2022-12-29T11:27:16;5.88;;;1.15;;
58581;SDS011;44361;51.476;5.700;2022-12-29T11:29:44;10.15;;;1.10;;
58581;SDS011;44361;51.476;5.700;2022-12-29T11:32:17;8.27;;;1.27;;
58581;SDS011;44361;51.476;5.700;2022-12-29T11:34:45;9.27;;;1.38;;
58581;SDS011;44361;51.476;5.700;2022-12-29T11:37:12;10.02;;;1.13;;
58581;SDS011;44361;51.476;5.700;2022-12-29T11:39:54;11.27;;;1.33;;
58581;SDS011;44361;51.476;5.700;2022-12-29T11:43:11;11.75;;;1.67;;
58581;SDS011;44361;51.476;5.700;2022-12-29T11:45:23;10.30;;;1.40;;
58581;SDS011;44361;51.476;5.700;2022-12-29T11:47:55;8.07;;;1.30;;
58581;SDS011;44361;51.476;5.700;2022-12-29T11:50:23;11.25;;;1.27;;
58581;SDS011;44361;51.476;5.700;2022-12-29T11:52:58;12.20;;;1.52;;
58581;SDS011;44361;51.476;5.700;2022-12-29T11:55:29;18.55;;;1.70;;
58581;SDS011;44361;51.476;5.700;2022-12-29T11:57:57;13.55;;;2.20;;
58581;SDS011;44361;51.476;5.700;2022-12-29T12:00:26;9.40;;;1.23;;
58581;SDS011;44361;51.476;5.700;2022-12-29T12:10:59;12.50;;;1.42;;
58581;SDS011;44361;51.476;5.700;2022-12-29T12:16:13;9.07;;;1.45;;
58581;SDS011;44361;51.476;5.700;2022-12-29T12:18:49;8.18;;;1.70;;
58581;SDS011;44361;51.476;5.700;2022-12-29T12:21:37;11.10;;;1.55;;
58581;SDS011;44361;51.476;5.700;2022-12-29T12:24:11;9.93;;;1.25;;
58581;SDS011;44361;51.476;5.700;2022-12-29T12:29:56;9.00;;;1.33;;
58581;SDS011;44361;51.476;5.700;2022-12-29T12:35:02;7.90;;;1.17;;
58581;SDS011;44361;51.476;5.700;2022-12-29T12:43:18;9.13;;;1.80;;
58581;SDS011;44361;51.476;5.700;2022-12-29T12:51:37;10.18;;;1.70;;
58581;SDS011;44361;51.476;5.700;2022-12-29T13:00:10;6.25;;;1.63;;
58581;SDS011;44361;51.476;5.700;2022-12-29T13:11:04;8.48;;;1.50;;
58581;SDS011;44361;51.476;5.700;2022-12-29T13:22:02;7.10;;;1.33;;
58581;SDS011;44361;51.476;5.700;2022-12-29T13:27:14;11.45;;;1.80;;
58581;SDS011;44361;51.476;5.700;2022-12-29T13:38:40;7.43;;;1.30;;
58581;SDS011;44361;51.476;5.700;2022-12-29T13:41:15;13.15;;;1.65;;
58581;SDS011;44361;51.476;5.700;2022-12-29T13:43:52;11.65;;;2.15;;
58581;SDS011;44361;51.476;5.700;2022-12-29T13:46:22;13.10;;;1.70;;
58581;SDS011;44361;51.476;5.700;2022-12-29T13:48:58;13.20;;;1.42;;
58581;SDS011;44361;51.476;5.700;2022-12-29T13:51:47;8.30;;;1.90;;
58581;SDS011;44361;51.476;5.700;2022-12-29T13:57:13;10.95;;;1.80;;
58581;SDS011;44361;51.476;5.700;2022-12-29T14:00:02;15.63;;;2.13;;
58581;SDS011;44361;51.476;5.700;2022-12-29T14:07:45;11.23;;;1.55;;
58581;SDS011;44361;51.476;5.700;2022-12-29T14:13:09;12.55;;;2.03;;
58581;SDS011;44361;51.476;5.700;2022-12-29T14:15:39;13.32;;;2.10;;
58581;SDS011;44361;51.476;5.700;2022-12-29T14:21:41;5.70;;;1.70;;
58581;SDS011;44361;51.476;5.700;2022-12-29T14:23:44;11.88;;;1.50;;
58581;SDS011;44361;51.476;5.700;2022-12-29T14:26:12;10.10;;;1.98;;
58581;SDS011;44361;51.476;5.700;2022-12-29T14:28:39;12.35;;;1.83;;
58581;SDS011;44361;51.476;5.700;2022-12-29T14:39:03;9.70;;;1.65;;
58581;SDS011;44361;51.476;5.700;2022-12-29T14:41:43;16.38;;;2.15;;
58581;SDS011;44361;51.476;5.700;2022-12-29T14:44:14;12.43;;;1.92;;
58581;SDS011;44361;51.476;5.700;2022-12-29T14:49:19;14.80;;;1.42;;
58581;SDS011;44361;51.476;5.700;2022-12-29T14:51:48;10.55;;;1.50;;
58581;SDS011;44361;51.476;5.700;2022-12-29T14:56:58;10.35;;;1.30;;
58581;SDS011;44361;51.476;5.700;2022-12-29T14:59:26;7.80;;;1.40;;
58581;SDS011;44361;51.476;5.700;2022-12-29T15:01:53;6.72;;;1.48;;
58581;SDS011;44361;51.476;5.700;2022-12-29T15:04:30;11.60;;;1.80;;
58581;SDS011;44361;51.476;5.700;2022-12-29T15:06:58;9.40;;;1.85;;
58581;SDS011;44361;51.476;5.700;2022-12-29T15:12:35;10.13;;;1.65;;
58581;SDS011;44361;51.476;5.700;2022-12-29T15:15:37;10.00;;;1.23;;
58581;SDS011;44361;51.476;5.700;2022-12-29T15:18:15;6.57;;;1.10;;
58581;SDS011;44361;51.476;5.700;2022-12-29T15:21:00;7.18;;;1.05;;
58581;SDS011;44361;51.476;5.700;2022-12-29T15:23:27;3.97;;;1.08;;
58581;SDS011;44361;51.476;5.700;2022-12-29T15:25:55;9.38;;;1.25;;
58581;SDS011;44361;51.476;5.700;2022-12-29T15:28:22;7.15;;;1.30;;
58581;SDS011;44361;51.476;5.700;2022-12-29T15:31:05;7.28;;;1.20;;
58581;SDS011;44361;51.476;5.700;2022-12-29T15:33:38;6.55;;;1.25;;
58581;SDS011;44361;51.476;5.700;2022-12-29T15:36:10;6.80;;;1.20;;
58581;SDS011;44361;51.476;5.700;2022-12-29T15:38:44;6.57;;;1.40;;
58581;SDS011;44361;51.476;5.700;2022-12-29T15:44:00;9.98;;;1.60;;
58581;SDS011;44361;51.476;5.700;2022-12-29T15:46:41;12.77;;;1.63;;
58581;SDS011;44361;51.476;5.700;2022-12-29T15:49:07;7.28;;;1.17;;
58581;SDS011;44361;51.476;5.700;2022-12-29T15:51:35;8.20;;;1.30;;
58581;SDS011;44361;51.476;5.700;2022-12-29T15:54:03;5.78;;;0.93;;
58581;SDS011;44361;51.476;5.700;2022-12-29T15:56:30;4.05;;;0.80;;
58581;SDS011;44361;51.476;5.700;2022-12-29T15:58:57;6.03;;;1.20;;
58581;SDS011;44361;51.476;5.700;2022-12-29T16:04:01;6.30;;;0.82;;
58581;SDS011;44361;51.476;5.700;2022-12-29T16:06:31;5.95;;;0.93;;
58581;SDS011;44361;51.476;5.700;2022-12-29T16:09:17;8.15;;;0.90;;
58581;SDS011;44361;51.476;5.700;2022-12-29T16:11:52;9.48;;;1.20;;
58581;SDS011;44361;51.476;5.700;2022-12-29T16:14:21;4.57;;;0.75;;
58581;SDS011;44361;51.476;5.700;2022-12-29T16:17:00;8.30;;;1.40;;
58581;SDS011;44361;51.476;5.700;2022-12-29T16:19:29;3.58;;;0.82;;
58581;SDS011;44361;51.476;5.700;2022-12-29T16:22:00;6.03;;;1.10;;
58581;SDS011;44361;51.476;5.700;2022-12-29T16:24:29;4.93;;;0.70;;
58581;SDS011;44361;51.476;5.700;2022-12-29T16:26:59;6.80;;;1.00;;
58581;SDS011;44361;51.476;5.700;2022-12-29T16:29:32;6.72;;;1.15;;
58581;SDS011;44361;51.476;5.700;2022-12-29T16:31:58;3.97;;;0.95;;
58581;SDS011;44361;51.476;5.700;2022-12-29T16:34:42;4.97;;;0.98;;
58581;SDS011;44361;51.476;5.700;2022-12-29T16:39:55;5.20;;;0.80;;
58581;SDS011;44361;51.476;5.700;2022-12-29T16:42:34;6.78;;;1.45;;
58581;SDS011;44361;51.476;5.700;2022-12-29T16:45:54;6.60;;;1.13;;
58581;SDS011;44361;51.476;5.700;2022-12-29T16:48:23;7.55;;;1.10;;
58581;SDS011;44361;51.476;5.700;2022-12-29T16:51:15;4.18;;;1.00;;
58581;SDS011;44361;51.476;5.700;2022-12-29T16:53:50;2.65;;;0.70;;
58581;SDS011;44361;51.476;5.700;2022-12-29T16:56:19;5.50;;;1.58;;
58581;SDS011;44361;51.476;5.700;2022-12-29T16:58:49;9.50;;;1.10;;
58581;SDS011;44361;51.476;5.700;2022-12-29T17:01:19;4.20;;;1.00;;
58581;SDS011;44361;51.476;5.700;2022-12-29T17:03:47;9.77;;;1.88;;
58581;SDS011;44361;51.476;5.700;2022-12-29T17:06:19;5.55;;;1.10;;
58581;SDS011;44361;51.476;5.700;2022-12-29T17:08:46;6.43;;;1.27;;
58581;SDS011;44361;51.476;5.700;2022-12-29T17:20:03;11.77;;;1.65;;
58581;SDS011;44361;51.476;5.700;2022-12-29T17:22:31;6.95;;;1.30;;
58581;SDS011;44361;51.476;5.700;2022-12-29T17:24:58;8.60;;;1.10;;
58581;SDS011;44361;51.476;5.700;2022-12-29T17:27:33;11.75;;;1.40;;
58581;SDS011;44361;51.476;5.700;2022-12-29T17:30:24;9.50;;;1.25;;
58581;SDS011;44361;51.476;5.700;2022-12-29T17:32:51;9.10;;;0.98;;
58581;SDS011;44361;51.476;5.700;2022-12-29T17:35:32;9.35;;;1.50;;
58581;SDS011;44361;51.476;5.700;2022-12-29T17:37:58;10.07;;;1.73;;
58581;SDS011;44361;51.476;5.700;2022-12-29T17:40:24;9.60;;;1.23;;
58581;SDS011;44361;51.476;5.700;2022-12-29T17:42:53;8.35;;;1.88;;